sensor_id;sensor_type;location;lat;lon;timestamp;pressure;altitude;pressure_sealevel;temperature;humidity
11053;BME280;55230;42.602;23.470;2022-09-09T00:00:22;93638.00;;;16.31;79.94
11053;BME280;55230;42.602;23.470;2022-09-09T00:02:57;93638.06;;;15.91;81.30
11053;BME280;55230;42.602;23.470;2022-09-09T00:05:31;93773.41;;;17.27;81.79
11053;BME280;55230;42.602;23.470;2022-09-09T00:08:02;93737.84;;;16.85;83.82
11053;BME280;55230;42.602;23.470;2022-09-09T00:10:32;93775.44;;;16.81;85.36
11053;BME280;55230;42.602;23.470;2022-09-09T00:13:08;93681.03;;;16.27;85.32
11053;BME280;55230;42.602;23.470;2022-09-09T00:15:48;93703.88;;;16.35;86.03
11053;BME280;55230;42.602;23.470;2022-09-09T00:18:23;93754.75;;;16.69;84.98
11053;BME280;55230;42.602;23.470;2022-09-09T00:20:57;93232.72;;;12.76;84.54
11053;BME280;55230;42.602;23.470;2022-09-09T00:23:28;93729.75;;;16.96;82.10
11053;BME280;55230;42.602;23.470;2022-09-09T00:26:02;93757.75;;;17.22;81.71
11053;BME280;55230;42.602;23.470;2022-09-09T00:28:37;93684.16;;;16.91;80.33
11053;BME280;55230;42.602;23.470;2022-09-09T00:31:12;93756.44;;;17.44;81.26
11053;BME280;55230;42.602;23.470;2022-09-09T00:33:40;93753.00;;;17.17;82.35
11053;BME280;55230;42.602;23.470;2022-09-09T00:36:12;93756.75;;;17.20;82.47
11053;BME280;55230;42.602;23.470;2022-09-09T00:38:43;93670.25;;;16.58;83.02
11053;BME280;55230;42.602;23.470;2022-09-09T00:41:17;93744.81;;;17.17;82.82
11053;BME280;55230;42.602;23.470;2022-09-09T00:43:56;93679.41;;;16.61;84.09
11053;BME280;55230;42.602;23.470;2022-09-09T00:46:44;93726.25;;;16.90;84.86
11053;BME280;55230;42.602;23.470;2022-09-09T00:49:21;93745.66;;;16.98;83.81
11053;BME280;55230;42.602;23.470;2022-09-09T00:51:59;93714.94;;;16.97;84.29
11053;BME280;55230;42.602;23.470;2022-09-09T00:54:38;93711.50;;;17.02;83.40
11053;BME280;55230;42.602;23.470;2022-09-09T00:57:28;93713.19;;;17.25;81.85
11053;BME280;55230;42.602;23.470;2022-09-09T01:00:16;93709.69;;;17.51;80.35
11053;BME280;55230;42.602;23.470;2022-09-09T01:02:53;93711.81;;;17.78;78.62
11053;BME280;55230;42.602;23.470;2022-09-09T01:05:27;93723.69;;;17.69;78.03
11053;BME280;55230;42.602;23.470;2022-09-09T01:07:57;93718.16;;;18.00;76.80
11053;BME280;55230;42.602;23.470;2022-09-09T01:10:32;93711.25;;;18.05;76.11
11053;BME280;55230;42.602;23.470;2022-09-09T01:13:04;93719.00;;;18.23;75.22
11053;BME280;55230;42.602;23.470;2022-09-09T01:15:40;93719.03;;;18.28;74.57
11053;BME280;55230;42.602;23.470;2022-09-09T01:18:10;93717.88;;;18.40;73.93
11053;BME280;55230;42.602;23.470;2022-09-09T01:20:45;93720.38;;;18.44;74.18
11053;BME280;55230;42.602;23.470;2022-09-09T01:23:27;93729.56;;;18.41;73.80
11053;BME280;55230;42.602;23.470;2022-09-09T01:26:18;93734.19;;;18.35;73.99
11053;BME280;55230;42.602;23.470;2022-09-09T01:28:47;93555.78;;;17.15;73.55
11053;BME280;55230;42.602;23.470;2022-09-09T01:31:19;93718.84;;;18.43;73.20
11053;BME280;55230;42.602;23.470;2022-09-09T01:33:46;93716.88;;;18.43;73.24
11053;BME280;55230;42.602;23.470;2022-09-09T01:36:20;93587.50;;;17.55;73.65
11053;BME280;55230;42.602;23.470;2022-09-09T01:38:51;93687.22;;;18.14;74.17
11053;BME280;55230;42.602;23.470;2022-09-09T01:41:20;93665.53;;;17.89;74.90
11053;BME280;55230;42.602;23.470;2022-09-09T01:43:47;93705.88;;;18.27;73.91
11053;BME280;55230;42.602;23.470;2022-09-09T01:46:14;93655.63;;;17.97;73.41
11053;BME280;55230;42.602;23.470;2022-09-09T01:48:43;93710.16;;;18.39;72.87
11053;BME280;55230;42.602;23.470;2022-09-09T01:51:10;93727.75;;;18.38;74.06
11053;BME280;55230;42.602;23.470;2022-09-09T01:53:37;93738.91;;;18.34;73.67
11053;BME280;55230;42.602;23.470;2022-09-09T01:56:13;93620.03;;;17.27;74.12
11053;BME280;55230;42.602;23.470;2022-09-09T01:58:56;93740.22;;;17.97;77.05
11053;BME280;55230;42.602;23.470;2022-09-09T02:01:35;93737.28;;;17.64;78.57
11053;BME280;55230;42.602;23.470;2022-09-09T02:04:13;93741.69;;;17.56;79.54
11053;BME280;55230;42.602;23.470;2022-09-09T02:06:45;93737.50;;;17.29;81.25
11053;BME280;55230;42.602;23.470;2022-09-09T02:09:16;93710.75;;;16.51;85.02
11053;BME280;55230;42.602;23.470;2022-09-09T02:11:46;93720.16;;;16.75;84.67
11053;BME280;55230;42.602;23.470;2022-09-09T02:14:20;93739.72;;;16.74;85.90
11053;BME280;55230;42.602;23.470;2022-09-09T02:16:52;93738.00;;;16.76;86.45
11053;BME280;55230;42.602;23.470;2022-09-09T02:19:23;93742.78;;;16.61;87.55
11053;BME280;55230;42.602;23.470;2022-09-09T02:21:54;93733.38;;;16.62;87.30
11053;BME280;55230;42.602;23.470;2022-09-09T02:24:23;93694.84;;;16.03;88.83
11053;BME280;55230;42.602;23.470;2022-09-09T02:26:53;93685.88;;;15.97;89.57
11053;BME280;55230;42.602;23.470;2022-09-09T02:29:26;93708.25;;;16.27;89.31
11053;BME280;55230;42.602;23.470;2022-09-09T02:31:57;93708.56;;;16.35;89.45
11053;BME280;55230;42.602;23.470;2022-09-09T02:34:25;93620.88;;;15.79;89.28
11053;BME280;55230;42.602;23.470;2022-09-09T02:36:55;93709.59;;;16.17;90.16
11053;BME280;55230;42.602;23.470;2022-09-09T02:39:23;93403.50;;;14.24;88.07
11053;BME280;55230;42.602;23.470;2022-09-09T02:41:50;93716.09;;;16.45;88.41
11053;BME280;55230;42.602;23.470;2022-09-09T02:44:18;93723.59;;;16.30;89.14
11053;BME280;55230;42.602;23.470;2022-09-09T02:47:03;93250.56;;;13.12;89.03
11053;BME280;55230;42.602;23.470;2022-09-09T02:49:41;93528.44;;;14.99;87.48
11053;BME280;55230;42.602;23.470;2022-09-09T02:52:13;93723.34;;;16.48;87.24
11053;BME280;55230;42.602;23.470;2022-09-09T02:54:42;93696.81;;;16.23;85.75
11053;BME280;55230;42.602;23.470;2022-09-09T02:57:12;93738.97;;;16.73;85.09
11053;BME280;55230;42.602;23.470;2022-09-09T02:59:43;93717.66;;;16.46;84.48
11053;BME280;55230;42.602;23.470;2022-09-09T03:02:12;93744.41;;;16.73;84.78
11053;BME280;55230;42.602;23.470;2022-09-09T03:04:39;93731.22;;;16.66;86.16
11053;BME280;55230;42.602;23.470;2022-09-09T03:07:07;93726.72;;;16.63;86.67
11053;BME280;55230;42.602;23.470;2022-09-09T03:09:35;93715.50;;;16.56;86.56
11053;BME280;55230;42.602;23.470;2022-09-09T03:12:02;93584.38;;;15.66;86.95
11053;BME280;55230;42.602;23.470;2022-09-09T03:14:29;93722.72;;;16.59;86.85
11053;BME280;55230;42.602;23.470;2022-09-09T03:16:56;93526.47;;;14.99;87.96
11053;BME280;55230;42.602;23.470;2022-09-09T03:19:27;93738.00;;;16.36;89.01
11053;BME280;55230;42.602;23.470;2022-09-09T03:21:55;93745.94;;;16.34;89.63
11053;BME280;55230;42.602;23.470;2022-09-09T03:24:22;93471.84;;;14.43;89.77
11053;BME280;55230;42.602;23.470;2022-09-09T03:26:49;93250.34;;;12.87;90.04
11053;BME280;55230;42.602;23.470;2022-09-09T03:29:16;93671.56;;;15.62;90.94
11053;BME280;55230;42.602;23.470;2022-09-09T03:31:44;93744.50;;;16.18;90.82
11053;BME280;55230;42.602;23.470;2022-09-09T03:34:11;93737.34;;;16.21;90.46
11053;BME280;55230;42.602;23.470;2022-09-09T03:36:40;93541.19;;;14.29;90.26
11053;BME280;55230;42.602;23.470;2022-09-09T03:39:07;93711.75;;;15.73;91.79
11053;BME280;55230;42.602;23.470;2022-09-09T03:41:34;93705.06;;;15.74;92.18
11053;BME280;55230;42.602;23.470;2022-09-09T03:44:02;93426.94;;;13.93;91.92
11053;BME280;55230;42.602;23.470;2022-09-09T03:46:29;93532.47;;;14.54;92.01
11053;BME280;55230;42.602;23.470;2022-09-09T03:48:56;93741.63;;;15.87;92.77
11053;BME280;55230;42.602;23.470;2022-09-09T03:51:23;93750.59;;;15.93;92.44
11053;BME280;55230;42.602;23.470;2022-09-09T03:53:51;93746.66;;;15.94;92.12
11053;BME280;55230;42.602;23.470;2022-09-09T03:56:23;93663.38;;;15.28;92.58
11053;BME280;55230;42.602;23.470;2022-09-09T03:58:50;93743.22;;;15.79;92.93
11053;BME280;55230;42.602;23.470;2022-09-09T04:01:16;93683.78;;;15.38;93.15
11053;BME280;55230;42.602;23.470;2022-09-09T04:03:44;93488.34;;;14.10;93.00
11053;BME280;55230;42.602;23.470;2022-09-09T04:06:12;93744.78;;;15.86;93.11
11053;BME280;55230;42.602;23.470;2022-09-09T04:08:40;93740.16;;;15.72;91.67
11053;BME280;55230;42.602;23.470;2022-09-09T04:11:08;93750.41;;;15.97;90.50
11053;BME280;55230;42.602;23.470;2022-09-09T04:13:36;93459.94;;;13.76;89.90
11053;BME280;55230;42.602;23.470;2022-09-09T04:16:04;93045.81;;;11.20;90.79
11053;BME280;55230;42.602;23.470;2022-09-09T04:18:32;93758.03;;;16.13;92.11
11053;BME280;55230;42.602;23.470;2022-09-09T04:20:59;93755.50;;;16.30;91.62
11053;BME280;55230;42.602;23.470;2022-09-09T04:23:28;93678.59;;;15.89;90.69
11053;BME280;55230;42.602;23.470;2022-09-09T04:25:56;93765.25;;;16.56;89.95
11053;BME280;55230;42.602;23.470;2022-09-09T04:28:26;93668.25;;;15.93;90.20
11053;BME280;55230;42.602;23.470;2022-09-09T04:30:53;93765.84;;;16.66;90.69
11053;BME280;55230;42.602;23.470;2022-09-09T04:33:20;93657.50;;;15.64;90.05
11053;BME280;55230;42.602;23.470;2022-09-09T04:35:48;93736.25;;;16.53;90.09
11053;BME280;55230;42.602;23.470;2022-09-09T04:38:15;93649.22;;;16.13;90.29
11053;BME280;55230;42.602;23.470;2022-09-09T04:40:42;93753.06;;;16.97;89.48
11053;BME280;55230;42.602;23.470;2022-09-09T04:43:10;93745.00;;;16.83;89.48
11053;BME280;55230;42.602;23.470;2022-09-09T04:45:38;93761.34;;;17.34;87.96
11053;BME280;55230;42.602;23.470;2022-09-09T04:48:05;93698.16;;;17.04;86.46
11053;BME280;55230;42.602;23.470;2022-09-09T04:50:32;93755.09;;;17.59;86.11
11053;BME280;55230;42.602;23.470;2022-09-09T04:53:00;93565.03;;;16.04;86.37
11053;BME280;55230;42.602;23.470;2022-09-09T04:55:27;93810.44;;;16.88;88.54
11053;BME280;55230;42.602;23.470;2022-09-09T04:57:55;93747.41;;;16.75;90.42
11053;BME280;55230;42.602;23.470;2022-09-09T05:00:22;93638.41;;;16.18;90.25
11053;BME280;55230;42.602;23.470;2022-09-09T05:02:50;93738.97;;;16.99;89.89
11053;BME280;55230;42.602;23.470;2022-09-09T05:05:17;93502.72;;;15.15;90.55
11053;BME280;55230;42.602;23.470;2022-09-09T05:07:45;93652.09;;;16.30;92.35
11053;BME280;55230;42.602;23.470;2022-09-09T05:10:12;93721.38;;;16.74;91.66
11053;BME280;55230;42.602;23.470;2022-09-09T05:12:41;93731.91;;;16.87;88.75
11053;BME280;55230;42.602;23.470;2022-09-09T05:15:09;93661.31;;;16.83;83.30
11053;BME280;55230;42.602;23.470;2022-09-09T05:17:37;93691.56;;;17.16;84.93
11053;BME280;55230;42.602;23.470;2022-09-09T05:20:06;93728.00;;;17.50;82.60
11053;BME280;55230;42.602;23.470;2022-09-09T05:22:32;93649.16;;;16.84;81.38
11053;BME280;55230;42.602;23.470;2022-09-09T05:24:59;93726.72;;;17.46;85.08
11053;BME280;55230;42.602;23.470;2022-09-09T05:27:26;93722.22;;;17.74;84.40
11053;BME280;55230;42.602;23.470;2022-09-09T05:29:53;93547.91;;;16.80;83.25
11053;BME280;55230;42.602;23.470;2022-09-09T05:32:19;93718.16;;;18.00;77.79
11053;BME280;55230;42.602;23.470;2022-09-09T05:34:46;93711.38;;;18.38;74.87
11053;BME280;55230;42.602;23.470;2022-09-09T05:37:15;93717.69;;;18.66;72.41
11053;BME280;55230;42.602;23.470;2022-09-09T05:39:42;93714.53;;;18.95;70.53
11053;BME280;55230;42.602;23.470;2022-09-09T05:42:08;93233.63;;;15.49;71.07
11053;BME280;55230;42.602;23.470;2022-09-09T05:44:35;93711.97;;;18.53;80.83
11053;BME280;55230;42.602;23.470;2022-09-09T05:47:02;93131.22;;;13.70;82.09
11053;BME280;55230;42.602;23.470;2022-09-09T05:49:29;93713.56;;;18.28;84.45
11053;BME280;55230;42.602;23.470;2022-09-09T05:51:56;93711.84;;;18.31;84.77
11053;BME280;55230;42.602;23.470;2022-09-09T05:54:24;93725.75;;;18.33;85.59
11053;BME280;55230;42.602;23.470;2022-09-09T05:56:50;93739.06;;;18.14;86.15
11053;BME280;55230;42.602;23.470;2022-09-09T05:59:18;93746.63;;;18.36;84.14
11053;BME280;55230;42.602;23.470;2022-09-09T06:01:46;93739.44;;;18.38;83.95
11053;BME280;55230;42.602;23.470;2022-09-09T06:04:12;93737.38;;;18.28;82.71
11053;BME280;55230;42.602;23.470;2022-09-09T06:06:40;93702.38;;;17.73;83.90
11053;BME280;55230;42.602;23.470;2022-09-09T06:09:08;93742.38;;;18.35;83.32
11053;BME280;55230;42.602;23.470;2022-09-09T06:11:39;93587.34;;;17.32;83.29
11053;BME280;55230;42.602;23.470;2022-09-09T06:14:06;93756.56;;;18.39;82.69
11053;BME280;55230;42.602;23.470;2022-09-09T06:16:33;93752.78;;;18.25;82.20
11053;BME280;55230;42.602;23.470;2022-09-09T06:19:01;93755.25;;;18.23;82.76
11053;BME280;55230;42.602;23.470;2022-09-09T06:21:29;93749.13;;;17.92;83.03
11053;BME280;55230;42.602;23.470;2022-09-09T06:23:58;93719.81;;;17.87;82.52
11053;BME280;55230;42.602;23.470;2022-09-09T06:26:26;93754.88;;;18.47;81.83
11053;BME280;55230;42.602;23.470;2022-09-09T06:28:55;93748.94;;;18.54;80.12
11053;BME280;55230;42.602;23.470;2022-09-09T06:31:24;93531.06;;;17.24;80.11
11053;BME280;55230;42.602;23.470;2022-09-09T06:33:53;93710.03;;;18.81;81.31
11053;BME280;55230;42.602;23.470;2022-09-09T06:36:22;93758.03;;;19.04;77.79
11053;BME280;55230;42.602;23.470;2022-09-09T06:38:49;93749.34;;;19.06;76.45
11053;BME280;55230;42.602;23.470;2022-09-09T06:41:18;93744.91;;;19.41;75.13
11053;BME280;55230;42.602;23.470;2022-09-09T06:43:45;93564.97;;;18.52;73.01
11053;BME280;55230;42.602;23.470;2022-09-09T06:46:15;93748.91;;;19.51;74.50
11053;BME280;55230;42.602;23.470;2022-09-09T06:48:43;93752.63;;;19.60;73.13
11053;BME280;55230;42.602;23.470;2022-09-09T06:51:12;93702.88;;;19.61;71.83
11053;BME280;55230;42.602;23.470;2022-09-09T06:53:40;93671.00;;;19.91;70.70
11053;BME280;55230;42.602;23.470;2022-09-09T06:56:18;93752.66;;;20.61;70.00
11053;BME280;55230;42.602;23.470;2022-09-09T06:58:47;93679.03;;;20.41;67.47
11053;BME280;55230;42.602;23.470;2022-09-09T07:01:16;93761.81;;;20.80;67.74
11053;BME280;55230;42.602;23.470;2022-09-09T07:03:47;93771.03;;;20.77;68.10
11053;BME280;55230;42.602;23.470;2022-09-09T07:06:16;93723.44;;;20.80;67.30
11053;BME280;55230;42.602;23.470;2022-09-09T07:08:43;93773.34;;;21.54;64.13
11053;BME280;55230;42.602;23.470;2022-09-09T07:11:10;93727.19;;;21.23;63.09
11053;BME280;55230;42.602;23.470;2022-09-09T07:13:37;93721.84;;;21.36;62.88
11053;BME280;55230;42.602;23.470;2022-09-09T07:16:04;93630.75;;;20.38;64.37
11053;BME280;55230;42.602;23.470;2022-09-09T07:18:34;93768.41;;;21.83;64.89
11053;BME280;55230;42.602;23.470;2022-09-09T07:21:02;93763.84;;;22.39;61.07
11053;BME280;55230;42.602;23.470;2022-09-09T07:23:29;93756.84;;;22.19;60.35
11053;BME280;55230;42.602;23.470;2022-09-09T07:25:56;93699.91;;;21.36;63.85
11053;BME280;55230;42.602;23.470;2022-09-09T07:28:24;93773.19;;;21.71;61.68
11053;BME280;55230;42.602;23.470;2022-09-09T07:30:55;93718.72;;;21.86;61.33
11053;BME280;55230;42.602;23.470;2022-09-09T07:33:22;93763.53;;;22.24;60.48
11053;BME280;55230;42.602;23.470;2022-09-09T07:35:51;93626.44;;;21.24;59.73
11053;BME280;55230;42.602;23.470;2022-09-09T07:38:18;93509.31;;;20.59;58.66
11053;BME280;55230;42.602;23.470;2022-09-09T07:40:45;93773.31;;;22.19;60.38
11053;BME280;55230;42.602;23.470;2022-09-09T07:43:12;93728.34;;;22.41;57.83
11053;BME280;55230;42.602;23.470;2022-09-09T07:45:39;93753.84;;;22.84;59.29
11053;BME280;55230;42.602;23.470;2022-09-09T07:48:08;93670.38;;;22.02;59.26
11053;BME280;55230;42.602;23.470;2022-09-09T07:50:36;93765.59;;;23.03;60.85
11053;BME280;55230;42.602;23.470;2022-09-09T07:53:04;93770.28;;;23.08;56.21
11053;BME280;55230;42.602;23.470;2022-09-09T07:55:31;93718.13;;;22.41;56.89
11053;BME280;55230;42.602;23.470;2022-09-09T07:57:58;93667.00;;;22.33;57.14
11053;BME280;55230;42.602;23.470;2022-09-09T08:00:25;93770.09;;;23.43;55.68
11053;BME280;55230;42.602;23.470;2022-09-09T08:02:52;93770.91;;;23.38;55.94
11053;BME280;55230;42.602;23.470;2022-09-09T08:05:19;93751.50;;;23.12;55.46
11053;BME280;55230;42.602;23.470;2022-09-09T08:07:47;93768.84;;;23.57;55.29
11053;BME280;55230;42.602;23.470;2022-09-09T08:10:15;93768.28;;;23.46;54.08
11053;BME280;55230;42.602;23.470;2022-09-09T08:12:43;93722.34;;;23.85;55.01
11053;BME280;55230;42.602;23.470;2022-09-09T08:15:10;93777.75;;;24.27;51.54
11053;BME280;55230;42.602;23.470;2022-09-09T08:17:37;93766.53;;;23.93;52.71
11053;BME280;55230;42.602;23.470;2022-09-09T08:20:05;93766.75;;;23.95;55.37
11053;BME280;55230;42.602;23.470;2022-09-09T08:22:32;93762.41;;;23.86;55.02
11053;BME280;55230;42.602;23.470;2022-09-09T08:24:59;93761.81;;;24.07;52.66
11053;BME280;55230;42.602;23.470;2022-09-09T08:27:28;93500.97;;;22.28;52.08
11053;BME280;55230;42.602;23.470;2022-09-09T08:29:57;93716.59;;;24.41;54.71
11053;BME280;55230;42.602;23.470;2022-09-09T08:32:24;93656.69;;;24.16;51.24
11053;BME280;55230;42.602;23.470;2022-09-09T08:34:51;93667.50;;;24.40;53.10
11053;BME280;55230;42.602;23.470;2022-09-09T08:37:18;93664.09;;;24.08;48.98
11053;BME280;55230;42.602;23.470;2022-09-09T08:39:45;93749.78;;;24.75;49.89
11053;BME280;55230;42.602;23.470;2022-09-09T08:42:37;93755.06;;;24.34;51.40
11053;BME280;55230;42.602;23.470;2022-09-09T08:45:18;93752.84;;;24.45;52.40
11053;BME280;55230;42.602;23.470;2022-09-09T08:47:55;93755.63;;;24.45;51.01
11053;BME280;55230;42.602;23.470;2022-09-09T08:50:26;93695.69;;;24.20;52.14
11053;BME280;55230;42.602;23.470;2022-09-09T08:52:59;93705.84;;;24.90;49.04
11053;BME280;55230;42.602;23.470;2022-09-09T08:55:35;93748.31;;;25.54;49.55
11053;BME280;55230;42.602;23.470;2022-09-09T08:58:11;93772.84;;;25.24;47.82
11053;BME280;55230;42.602;23.470;2022-09-09T09:00:44;93750.38;;;25.07;49.38
11053;BME280;55230;42.602;23.470;2022-09-09T09:03:23;93746.56;;;24.58;50.51
11053;BME280;55230;42.602;23.470;2022-09-09T09:05:59;93746.03;;;24.98;50.10
11053;BME280;55230;42.602;23.470;2022-09-09T09:08:32;93743.25;;;25.11;49.03
11053;BME280;55230;42.602;23.470;2022-09-09T09:11:03;93742.91;;;24.81;50.16
11053;BME280;55230;42.602;23.470;2022-09-09T09:13:37;93741.50;;;24.75;50.87
11053;BME280;55230;42.602;23.470;2022-09-09T09:16:13;93330.88;;;21.99;49.59
11053;BME280;55230;42.602;23.470;2022-09-09T09:18:43;93664.63;;;24.92;49.15
11053;BME280;55230;42.602;23.470;2022-09-09T09:21:14;93686.28;;;25.01;48.47
11053;BME280;55230;42.602;23.470;2022-09-09T09:23:48;93743.94;;;25.38;48.70
11053;BME280;55230;42.602;23.470;2022-09-09T09:26:18;93694.81;;;24.90;50.60
11053;BME280;55230;42.602;23.470;2022-09-09T09:28:46;93738.69;;;25.14;50.28
11053;BME280;55230;42.602;23.470;2022-09-09T09:31:13;93732.25;;;25.32;50.95
11053;BME280;55230;42.602;23.470;2022-09-09T09:33:46;93735.47;;;26.18;46.92
11053;BME280;55230;42.602;23.470;2022-09-09T09:36:14;93735.56;;;26.90;45.40
11053;BME280;55230;42.602;23.470;2022-09-09T09:38:53;93685.59;;;26.03;45.93
11053;BME280;55230;42.602;23.470;2022-09-09T09:41:29;93745.19;;;25.91;48.11
11053;BME280;55230;42.602;23.470;2022-09-09T09:43:58;93724.34;;;25.70;46.86
11053;BME280;55230;42.602;23.470;2022-09-09T09:46:26;93738.63;;;26.23;52.95
11053;BME280;55230;42.602;23.470;2022-09-09T09:49:00;93747.31;;;26.27;46.53
11053;BME280;55230;42.602;23.470;2022-09-09T09:51:28;93726.59;;;25.71;48.11
11053;BME280;55230;42.602;23.470;2022-09-09T09:54:05;93734.00;;;25.97;47.39
11053;BME280;55230;42.602;23.470;2022-09-09T09:56:34;93636.97;;;25.59;47.18
11053;BME280;55230;42.602;23.470;2022-09-09T09:59:02;93676.22;;;26.35;47.09
11053;BME280;55230;42.602;23.470;2022-09-09T10:01:31;93676.88;;;26.91;45.62
11053;BME280;55230;42.602;23.470;2022-09-09T10:04:00;93721.00;;;27.40;46.09
11053;BME280;55230;42.602;23.470;2022-09-09T10:06:31;93715.47;;;27.55;44.57
11053;BME280;55230;42.602;23.470;2022-09-09T10:08:59;93715.38;;;27.25;44.35
11053;BME280;55230;42.602;23.470;2022-09-09T10:11:34;93674.44;;;27.46;46.34
11053;BME280;55230;42.602;23.470;2022-09-09T10:14:14;93684.31;;;27.04;43.47
11053;BME280;55230;42.602;23.470;2022-09-09T10:16:55;93715.16;;;27.96;42.97
11053;BME280;55230;42.602;23.470;2022-09-09T10:19:30;93601.94;;;26.82;43.85
11053;BME280;55230;42.602;23.470;2022-09-09T10:22:18;93714.53;;;26.94;45.74
11053;BME280;55230;42.602;23.470;2022-09-09T10:25:13;93726.88;;;27.29;45.67
11053;BME280;55230;42.602;23.470;2022-09-09T10:27:53;93678.84;;;26.76;46.03
11053;BME280;55230;42.602;23.470;2022-09-09T10:30:29;93724.00;;;26.43;46.97
11053;BME280;55230;42.602;23.470;2022-09-09T10:33:06;93735.81;;;25.94;47.61
11053;BME280;55230;42.602;23.470;2022-09-09T10:35:40;93701.84;;;25.45;47.58
11053;BME280;55230;42.602;23.470;2022-09-09T10:38:15;93731.16;;;25.48;48.68
11053;BME280;55230;42.602;23.470;2022-09-09T10:40:49;93707.41;;;25.32;49.91
11053;BME280;55230;42.602;23.470;2022-09-09T10:43:53;93725.34;;;25.59;48.87
11053;BME280;55230;42.602;23.470;2022-09-09T10:46:31;93605.06;;;24.63;50.48
11053;BME280;55230;42.602;23.470;2022-09-09T10:49:13;93729.59;;;25.40;50.27
11053;BME280;55230;42.602;23.470;2022-09-09T10:51:51;93698.09;;;25.22;48.75
11053;BME280;55230;42.602;23.470;2022-09-09T10:54:31;93682.25;;;25.02;52.27
11053;BME280;55230;42.602;23.470;2022-09-09T10:57:05;93630.59;;;24.43;49.40
11053;BME280;55230;42.602;23.470;2022-09-09T10:59:39;93731.06;;;25.07;52.41
11053;BME280;55230;42.602;23.470;2022-09-09T11:02:15;93726.19;;;24.87;51.82
11053;BME280;55230;42.602;23.470;2022-09-09T11:04:49;93634.19;;;24.38;50.49
11053;BME280;55230;42.602;23.470;2022-09-09T11:07:25;93358.66;;;22.40;51.41
11053;BME280;55230;42.602;23.470;2022-09-09T11:09:59;93703.25;;;24.92;51.90
11053;BME280;55230;42.602;23.470;2022-09-09T11:12:28;93668.97;;;24.54;51.92
11053;BME280;55230;42.602;23.470;2022-09-09T11:14:59;93748.28;;;24.87;51.65
11053;BME280;55230;42.602;23.470;2022-09-09T11:17:36;93738.34;;;24.71;52.80
11053;BME280;55230;42.602;23.470;2022-09-09T11:20:11;93738.09;;;24.56;53.01
11053;BME280;55230;42.602;23.470;2022-09-09T11:22:43;93742.44;;;24.64;52.78
11053;BME280;55230;42.602;23.470;2022-09-09T11:25:15;93703.31;;;24.66;53.80
11053;BME280;55230;42.602;23.470;2022-09-09T11:27:53;93741.56;;;24.95;52.92
11053;BME280;55230;42.602;23.470;2022-09-09T11:30:22;93737.88;;;25.27;52.12
11053;BME280;55230;42.602;23.470;2022-09-09T11:33:12;93730.94;;;25.46;50.94
11053;BME280;55230;42.602;23.470;2022-09-09T11:35:57;93528.13;;;24.18;50.21
11053;BME280;55230;42.602;23.470;2022-09-09T11:38:32;93722.06;;;26.02;48.97
11053;BME280;55230;42.602;23.470;2022-09-09T11:41:05;93708.09;;;25.87;46.99
11053;BME280;55230;42.602;23.470;2022-09-09T11:43:39;93700.56;;;25.67;46.83
11053;BME280;55230;42.602;23.470;2022-09-09T11:46:08;93588.88;;;24.93;47.67
11053;BME280;55230;42.602;23.470;2022-09-09T11:48:38;93694.00;;;25.98;46.41
11053;BME280;55230;42.602;23.470;2022-09-09T11:51:10;93698.75;;;25.90;45.58
11053;BME280;55230;42.602;23.470;2022-09-09T11:53:48;93682.69;;;26.09;45.30
11053;BME280;55230;42.602;23.470;2022-09-09T11:56:25;93678.91;;;26.19;46.85
11053;BME280;55230;42.602;23.470;2022-09-09T11:59:19;93689.13;;;25.83;45.94
11053;BME280;55230;42.602;23.470;2022-09-09T12:01:50;93655.72;;;25.53;46.11
11053;BME280;55230;42.602;23.470;2022-09-09T12:04:35;93648.97;;;26.10;47.66
11053;BME280;55230;42.602;23.470;2022-09-09T12:07:23;93586.00;;;25.88;47.91
11053;BME280;55230;42.602;23.470;2022-09-09T12:09:56;93650.13;;;26.51;46.02
11053;BME280;55230;42.602;23.470;2022-09-09T12:12:31;93647.66;;;26.68;47.08
11053;BME280;55230;42.602;23.470;2022-09-09T12:15:18;93657.13;;;26.52;45.87
11053;BME280;55230;42.602;23.470;2022-09-09T12:17:47;93649.72;;;26.11;45.81
11053;BME280;55230;42.602;23.470;2022-09-09T12:20:19;93664.69;;;26.15;45.83
11053;BME280;55230;42.602;23.470;2022-09-09T12:22:59;93646.50;;;26.28;45.98
11053;BME280;55230;42.602;23.470;2022-09-09T12:25:36;93641.69;;;26.64;45.42
11053;BME280;55230;42.602;23.470;2022-09-09T12:28:11;93632.28;;;26.23;46.97
11053;BME280;55230;42.602;23.470;2022-09-09T12:30:47;93641.41;;;26.75;46.67
11053;BME280;55230;42.602;23.470;2022-09-09T12:33:17;93636.81;;;26.49;45.15
11053;BME280;55230;42.602;23.470;2022-09-09T12:35:51;93636.00;;;25.77;46.92
11053;BME280;55230;42.602;23.470;2022-09-09T12:38:26;93631.13;;;25.42;47.91
11053;BME280;55230;42.602;23.470;2022-09-09T12:40:58;93630.81;;;25.74;47.34
11053;BME280;55230;42.602;23.470;2022-09-09T12:43:26;93590.78;;;25.39;47.50
11053;BME280;55230;42.602;23.470;2022-09-09T12:45:56;93626.13;;;25.61;47.37
11053;BME280;55230;42.602;23.470;2022-09-09T12:48:28;93602.16;;;25.84;48.37
11053;BME280;55230;42.602;23.470;2022-09-09T12:50:58;93633.09;;;26.03;46.54
11053;BME280;55230;42.602;23.470;2022-09-09T12:53:28;93621.22;;;25.95;47.78
11053;BME280;55230;42.602;23.470;2022-09-09T12:55:57;93628.63;;;26.29;47.92
11053;BME280;55230;42.602;23.470;2022-09-09T12:58:25;93539.13;;;25.27;49.04
11053;BME280;55230;42.602;23.470;2022-09-09T13:00:55;93576.09;;;25.44;48.56
11053;BME280;55230;42.602;23.470;2022-09-09T13:03:23;93617.28;;;25.83;48.98
11053;BME280;55230;42.602;23.470;2022-09-09T13:05:51;93604.31;;;25.78;49.65
11053;BME280;55230;42.602;23.470;2022-09-09T13:08:19;93565.91;;;25.60;47.69
11053;BME280;55230;42.602;23.470;2022-09-09T13:10:48;93602.16;;;25.84;48.04